Carmen — SMGW — position and weather

sailwx.info

Track history (hours):
 
Tides and Currents Weather Stations Pressure Air Temp Water Temp Dewpoint Dewpoint Depression Visibility Wind Speed Wind Dir Waves Ship Positions

Carmen

Last reported at 2015-Aug-29 22:17 UTC. Time now 2015-Aug-29 23:30 UTC.
Position N 37°35' E 010°34'.

Length 228 m; draft 9.7 m.

Type: Cargo ship. MMSI: 266339000.

Date/timePositionNaut miles runAvg speedWind from/ knotsBaromVisibWave heightAir tempDewpointWater temp
2015-Aug-29 22:17N 37°35' E 010°34'1113.8
2015-Aug-29 21:28N 37°32' E 010°48'1513.8
2015-Aug-29 20:23N 37°28' E 011°06'1214.0
2015-Aug-29 19:33N 37°24' E 011°19'1414.5
2015-Aug-29 18:33N 37°20' E 011°37'1514.5
2015-Aug-29 17:33N 37°17' E 011°55'1814.4
2015-Aug-29 16:17N 37°11' E 012°16'4114.2
2015-Aug-29 13:25N 36°55' E 013°04'1214.1
2015-Aug-29 12:32N 36°51' E 013°18'1414.2
2015-Aug-29 11:33N 36°45' E 013°34'1914.2
2015-Aug-29 10:13N 36°38' E 013°56'1014.6
2015-Aug-29 09:33N 36°35' E 014°08'1514.6
2015-Aug-29 08:33N 36°29' E 014°25'1414.5
2015-Aug-29 07:33N 36°24' E 014°42'6414.9
2015-Aug-29 03:16N 36°05' E 015°57'4915.1
2015-Aug-29 00:00N 35°48' E 016°54'62615.1 040 / 101018.610.8 26.6 28.6
2015-Aug-27 06:28N 32°35' E 028°55'3116.3
2015-Aug-27 04:33N 32°26' E 029°30'2016.5
2015-Aug-27 03:21N 32°20' E 029°52'1616.5
2015-Aug-27 02:23N 32°15' E 030°10'6416.4
2015-Aug-26 22:30N 31°55' E 031°22'4615.5
2015-Aug-26 19:33N 31°35' E 032°11'  
2015-Aug-24 12:00N 23°24' E 036°42'   300 / 101004.810.8 31.9 31.7
2015-Aug-21 18:00N 13°48' E 050°54'26214.6 150 / 191006.6 5.4 28.8 30.0
2015-Aug-21 00:00N 13°42' E 055°24'9315.4 190 / 291006.810.8 25.3 25.3
2015-Aug-20 18:00N 13°12' E 056°54'29516.4 190 / 211010.010.8 25.1 25.3
2015-Aug-20 00:00N 11°42' E 061°42'   210 / 141010.810.8 26.7 28.1
Track history (hours):
 
Tides and Currents Weather Stations Pressure Air Temp Water Temp Dewpoint Dewpoint Depression Visibility Wind Speed Wind Dir Waves Ship Positions

Carmen

Last reported at 2015-Aug-29 22:17 UTC. Time now 2015-Aug-29 23:30 UTC.
Position N 37°35' E 010°34'.

Length 228 m; draft 9.7 m.

Type: Cargo ship. MMSI: 266339000.

Date/timePositionNaut miles runAvg speedWind from/ knotsBaromVisibWave heightAir tempDewpointWater temp
2015-Aug-29 22:17N 37°35' E 010°34'1113.8
2015-Aug-29 21:28N 37°32' E 010°48'1513.8
2015-Aug-29 20:23N 37°28' E 011°06'1214.0
2015-Aug-29 19:33N 37°24' E 011°19'1414.5
2015-Aug-29 18:33N 37°20' E 011°37'1514.5
2015-Aug-29 17:33N 37°17' E 011°55'1814.4
2015-Aug-29 16:17N 37°11' E 012°16'4114.2
2015-Aug-29 13:25N 36°55' E 013°04'1214.1
2015-Aug-29 12:32N 36°51' E 013°18'1414.2
2015-Aug-29 11:33N 36°45' E 013°34'1914.2
2015-Aug-29 10:13N 36°38' E 013°56'1014.6
2015-Aug-29 09:33N 36°35' E 014°08'1514.6
2015-Aug-29 08:33N 36°29' E 014°25'1414.5
2015-Aug-29 07:33N 36°24' E 014°42'6414.9
2015-Aug-29 03:16N 36°05' E 015°57'4915.1
2015-Aug-29 00:00N 35°48' E 016°54'62615.1 040 / 101018.610.8 26.6 28.6
2015-Aug-27 06:28N 32°35' E 028°55'3116.3
2015-Aug-27 04:33N 32°26' E 029°30'2016.5
2015-Aug-27 03:21N 32°20' E 029°52'1616.5
2015-Aug-27 02:23N 32°15' E 030°10'6416.4
2015-Aug-26 22:30N 31°55' E 031°22'4615.5
2015-Aug-26 19:33N 31°35' E 032°11'  
2015-Aug-24 12:00N 23°24' E 036°42'   300 / 101004.810.8 31.9 31.7
2015-Aug-21 18:00N 13°48' E 050°54'26214.6 150 / 191006.6 5.4 28.8 30.0
2015-Aug-21 00:00N 13°42' E 055°24'9315.4 190 / 291006.810.8 25.3 25.3
2015-Aug-20 18:00N 13°12' E 056°54'29516.4 190 / 211010.010.8 25.1 25.3
2015-Aug-20 00:00N 11°42' E 061°42'   210 / 141010.810.8 26.7 28.1

Dump ship's entire track history